Latest Weather Observations for Tasman Island

IDT60901

Issued at 4:01 pm EDT Tuesday 24 January 2017 (issued every 10 minutes, with the page automatically refreshed every 10 minutes)

About weather observations | Map of Hobart area stations | Latest observations for Hobart area | Other Formats
Station Details ID: 094155 Name: TASMAN ISLAND Lat: -43.24 Lon: 148.00 Height: 240.0 m
Data from the previous 72 hours. | See also: Recent months at Tasman Island
Date/Time
EDT
Temp
°C
App
Temp
°C
Dew
Point
°C
Rel
Hum
%
Delta-T
°C
Wind Press
QNH
hPa
Press
MSL
hPa
Rain since
9am
mm
Dir  Spd
km/h
Gust
km/h
Spd
kts
Gust
kts
24/04:00pm 14.3 7.7 5.9 57 4.1 WSW 30 59 16 32 1006.7 1006.3 0.4
24/03:30pm 14.8 8.4 6.9 59 3.9 WSW 30 69 16 37 1006.6 1006.2 0.4
24/03:00pm 13.9 7.6 7.4 65 3.2 WSW 30 61 16 33 1006.0 1005.6 0.4
24/02:30pm 14.7 7.3 5.0 52 4.6 WSW 33 63 18 34 1005.0 1004.7 0.4
24/02:00pm 14.0 7.6 5.1 55 4.2 WSW 28 63 15 34 1004.5 1004.2 0.4
24/01:30pm 13.9 7.7 6.3 60 3.7 WSW 28 76 15 41 1004.0 1003.7 0.4
24/01:14pm 13.6 5.8 6.5 62 3.5 WSW 37 91 20 49 1003.1 1002.7 0.4
24/01:00pm 14.4 8.9 6.0 57 4.1 WSW 24 63 13 34 1003.0 1002.6 0.4
24/12:40pm 14.1 9.0 4.1 51 4.6 WSW 20 69 11 37 1002.6 1002.2 0.4
24/12:30pm 14.2 9.5 5.3 55 4.2 W 19 67 10 36 1002.3 1001.9 0.4
24/12:09pm 12.7 6.8 7.4 70 2.6 SW 28 78 15 42 1001.9 1001.5 0.4
24/12:00pm 13.7 9.7 6.6 62 3.5 W 17 48 9 26 1001.6 1001.2 0.4
24/11:30am 12.3 8.8 8.6 78 1.9 WNW 17 59 9 32 1001.4 1001.0 0.4
24/11:00am 11.8 8.4 9.0 83 1.4 SSW 17 69 9 37 1000.5 1000.2 0.2
24/10:30am 13.2 9.8 7.6 69 2.8 NNW 15 50 8 27 999.8 999.5 0.0
24/10:00am 13.3 10.4 8.2 71 2.6 NNE 13 35 7 19 999.2 998.8 0.0
24/09:30am 13.1 7.2 7.3 68 2.9 WSW 28 67 15 36 998.0 997.6 0.0
24/09:00am 12.8 6.5 7.5 70 2.6 W 30 74 16 40 997.5 997.1 1.6
24/08:33am 12.5 6.9 8.6 77 2.0 WSW 28 78 15 42 997.2 996.8 1.6
24/08:30am 12.5 6.8 8.4 76 2.1 WSW 28 78 15 42 997.1 996.7 1.6
24/08:12am 12.2 7.4 9.0 81 1.6 WSW 24 65 13 35 996.0 995.6 1.6
24/08:00am 13.7 9.7 8.3 70 2.8 W 19 57 10 31 995.2 994.8 1.2
24/07:30am 13.8 10.7 8.8 72 2.6 NW 15 57 8 31 994.3 993.9 1.2
24/07:00am 13.9 10.3 8.3 69 2.9 NNW 17 57 9 31 993.0 992.6 1.2
24/06:30am 16.0 11.4 9.7 66 3.3 WNW 24 100 13 54 991.4 991.0 1.2
24/06:23am 16.1 11.2 10.0 67 3.2 WNW 26 100 14 54 990.9 990.5 1.2
24/06:00am 16.5 13.4 12.3 76 2.4 NW 20 57 11 31 990.8 990.4 1.2
24/05:30am 17.0 12.7 14.3 84 1.6 W 30 78 16 42 990.5 990.1 0.6
24/05:29am 16.8 12.8 14.1 84 1.6 W 28 78 15 42 990.5 990.1 0.6
24/05:00am 16.3 14.1 14.8 91 0.9 WSW 20 33 11 18 990.5 990.1 0.2
24/04:43am 18.6 14.9 13.9 74 2.7 W 26 54 14 29 989.9 989.5 0.0
24/04:30am 21.0 14.0 14.2 65 4.0 WNW 44 65 24 35 989.2 988.8 0.0
24/04:00am 20.5 13.7 14.4 68 3.6 NW 43 61 23 33 989.0 988.6 0.0
24/03:30am 20.4 14.7 14.1 67 3.7 NNW 37 61 20 33 989.7 989.3 0.0
24/03:01am 20.5 15.8 13.2 63 4.2 N 30 48 16 26 990.4 990.0 0.0
24/03:00am 20.5 15.8 13.2 63 4.2 NNW 30 43 16 23 990.3 989.9 0.0
24/02:30am 20.1 15.3 12.8 63 4.2 N 30 41 16 22 991.4 991.0 0.0
24/02:00am 19.5 13.4 13.0 66 3.7 N 37 46 20 25 992.1 991.7 0.0
24/01:30am 19.8 13.7 13.0 65 3.9 N 37 52 20 28 993.1 992.7 0.0
24/01:25am 20.1 13.9 12.6 62 4.3 N 37 52 20 28 993.1 992.7 0.0
24/01:00am 20.4 17.1 12.9 62 4.3 N 22 33 12 18 994.2 993.8 0.0
24/12:30am 18.7 17.4 13.6 72 2.9 NNW 13 20 7 11 995.1 994.7 0.0
24/12:00am 17.7 16.2 13.2 75 2.6 WNW 13 19 7 10 995.6 995.2 0.0
 
Date/Time
EDT
Temp
°C
App
Temp
°C
Dew
Point
°C
Rel
Hum
%
Delta-T
°C
Wind Press
QNH
hPa
Press
MSL
hPa
Rain since
9am
mm
Dir  Spd
km/h
Gust
km/h
Spd
kts
Gust
kts
23/11:30pm 17.7 16.1 13.8 78 2.2 WNW 15 20 8 11 996.1 995.8 0.0
23/11:00pm 18.9 18.0 13.7 72 3.0 NW 11 17 6 9 996.6 996.3 0.0
23/10:30pm 20.1 18.1 14.9 72 3.1 N 19 22 10 12 996.8 996.5 0.0
23/10:00pm 19.1 17.5 13.9 72 3.0 WNW 15 19 8 10 997.6 997.2 0.0
23/09:30pm 19.2 17.9 14.9 76 2.5 W 15 22 8 12 998.2 997.8 0.0
23/09:00pm 19.4 18.7 15.3 77 2.5 WNW 13 17 7 9 998.2 997.8 0.0
23/08:37pm 19.8 15.4 15.2 75 2.7 N 32 44 17 24 998.2 997.8 0.0
23/08:30pm 20.5 14.8 15.3 72 3.1 N 39 50 21 27 997.9 997.5 0.0
23/08:00pm 17.2 13.5 16.9 98 0.2 NNE 32 44 17 24 998.1 997.7 0.0
23/07:30pm 17.4 12.8 17.1 98 0.2 NNE 37 46 20 25 998.7 998.3 0.0
23/07:00pm 17.4 12.0 17.1 98 0.2 NNE 41 48 22 26 998.9 998.5 0.0
23/06:30pm 17.6 12.3 17.3 98 0.2 NNE 41 50 22 27 999.6 999.2 0.0
23/06:00pm 17.5 12.1 17.0 97 0.3 NNE 41 52 22 28 1000.1 999.8 0.0
23/05:30pm 17.6 11.8 17.0 96 0.4 NNE 43 54 23 29 1000.6 1000.3 0.0
23/05:00pm 17.4 12.2 16.6 95 0.5 NNE 39 52 21 28 1001.0 1000.7 0.0
23/04:30pm 17.9 11.8 16.1 89 1.1 NNE 43 52 23 28 1001.7 1001.3 0.0
23/04:00pm 18.5 13.3 12.9 70 3.2 NE 32 46 17 25 1002.4 1002.0 0.0
23/03:38pm 18.2 14.3 14.3 78 2.3 NE 28 50 15 27 1002.9 1002.5 0.0
23/03:30pm 18.1 14.1 14.2 78 2.3 NE 28 43 15 23 1003.1 1002.7 0.0
23/03:00pm 18.3 14.4 13.4 73 2.8 NE 26 41 14 22 1003.7 1003.4 0.0
23/02:30pm 18.2 14.1 14.9 81 1.9 NNE 30 43 16 23 1004.3 1004.0 0.0
23/02:00pm 18.1 14.2 15.4 84 1.6 NNE 30 44 16 24 1004.7 1004.4 0.0
23/01:30pm 17.0 12.4 15.0 88 1.2 NNE 33 48 18 26 1005.1 1004.8 0.0
23/01:00pm 17.1 12.0 14.9 87 1.3 NNE 35 46 19 25 1005.8 1005.4 0.0
23/12:30pm 16.9 13.0 14.5 86 1.4 NNE 28 39 15 21 1006.4 1006.0 0.0
23/12:00pm 16.8 12.4 14.1 84 1.6 NNE 30 39 16 21 1006.8 1006.5 0.0
23/11:30am 17.5 14.9 14.8 84 1.6 NNE 22 37 12 20 1006.9 1006.6 0.0
23/11:00am 18.1 15.2 15.0 82 1.8 NNE 24 32 13 17 1007.5 1007.2 0.0
23/10:30am 16.9 13.3 14.2 84 1.6 NNE 26 35 14 19 1007.7 1007.4 0.0
23/10:00am 16.8 13.2 14.1 84 1.6 NNE 26 35 14 19 1008.0 1007.7 0.0
23/09:30am 16.8 12.9 14.3 85 1.4 NNE 28 41 15 22 1008.3 1008.0 0.0
23/09:00am 16.4 12.7 13.9 85 1.4 NNE 26 37 14 20 1008.6 1008.3 0.0
23/08:30am 15.9 12.2 13.9 88 1.1 NNE 26 35 14 19 1008.9 1008.6 0.0
23/08:00am 15.4 11.9 13.4 88 1.1 NNE 24 32 13 17 1008.9 1008.6 0.0
23/07:30am 15.4 14.0 13.4 88 1.1 NE 13 20 7 11 1009.1 1008.8 0.0
23/07:00am 15.0 13.8 12.7 86 1.3 NNE 11 17 6 9 1009.3 1009.0 0.0
23/06:30am 14.9 14.3 12.4 85 1.4 NNE 7 15 4 8 1009.3 1009.0 0.0
23/06:00am 15.0 14.3 12.1 83 1.6 NE 7 15 4 8 1009.3 1009.0 0.0
23/05:30am 15.0 14.2 11.8 81 1.7 NE 7 17 4 9 1009.1 1008.8 0.0
23/05:00am 15.0 14.2 11.8 81 1.8 ENE 7 13 4 7 1009.1 1008.8 0.0
23/04:30am 14.9 14.0 11.5 80 1.8 ENE 7 15 4 8 1009.3 1009.0 0.0
23/04:00am 14.8 14.5 11.6 81 1.7 ENE 4 13 2 7 1009.5 1009.2 0.0
23/03:30am 14.7 13.9 11.7 82 1.6 ESE 7 17 4 9 1009.7 1009.4 0.0
23/03:00am 14.6 13.5 11.9 84 1.5 ESE 9 17 5 9 1010.1 1009.7 0.0
23/02:30am 14.4 13.6 11.7 84 1.5 ESE 7 17 4 9 1010.3 1009.9 0.0
23/02:00am 14.3 13.5 11.8 85 1.4 ESE 7 17 4 9 1010.6 1010.3 0.0
23/01:30am 14.3 13.5 11.8 85 1.4 E 7 20 4 11 1011.0 1010.7 0.0
23/01:00am 14.3 13.1 11.6 84 1.5 E 9 19 5 10 1011.4 1011.1 0.0
23/12:30am 14.0 13.7 11.5 85 1.4 E 4 15 2 8 1011.8 1011.5 0.0
23/12:00am 13.8 13.9 11.5 86 1.2 E 2 7 1 4 1012.1 1011.8 0.0
 
Date/Time
EDT
Temp
°C
App
Temp
°C
Dew
Point
°C
Rel
Hum
%
Delta-T
°C
Wind Press
QNH
hPa
Press
MSL
hPa
Rain since
9am
mm
Dir  Spd
km/h
Gust
km/h
Spd
kts
Gust
kts
22/11:30pm 13.9 14.0 11.6 86 1.2 E 2 6 1 3 1012.3 1012.0 0.0
22/11:00pm 13.7 13.0 11.4 86 1.2 SE 6 7 3 4 1012.6 1012.3 0.0
22/10:30pm 13.8 12.9 11.3 85 1.3 SSE 7 9 4 5 1013.0 1012.7 0.0
22/10:00pm 14.1 12.8 11.4 84 1.5 SSE 9 13 5 7 1013.1 1012.8 0.0
22/09:30pm 14.1 13.3 11.8 86 1.3 SE 7 13 4 7 1013.0 1012.7 0.0
22/09:00pm 14.3 13.6 12.0 86 1.3 SE 7 15 4 8 1012.9 1012.6 0.0
22/08:30pm 14.7 14.2 12.0 84 1.5 S 6 15 3 8 1012.7 1012.4 0.0
22/08:00pm 15.3 14.8 12.1 81 1.8 S 6 15 3 8 1012.8 1012.5 0.0
22/07:30pm 15.6 15.0 11.8 78 2.1 SW 6 13 3 7 1013.0 1012.7 0.0
22/07:00pm 15.7 15.0 11.5 76 2.3 SSE 6 17 3 9 1012.9 1012.6 0.0
22/06:30pm 16.1 15.2 10.8 71 2.9 ESE 6 17 3 9 1012.8 1012.5 0.0
22/06:00pm 16.3 15.4 11.5 73 2.6 SE 7 19 4 10 1012.8 1012.5 0.0
22/05:30pm 16.4 15.9 12.0 75 2.4 SE 6 17 3 9 1012.8 1012.5 0.0
22/05:00pm 16.5 15.8 12.1 75 2.4 SE 7 22 4 12 1013.0 1012.7 0.0
22/04:30pm 17.1 16.3 10.9 67 3.4 SSE 6 15 3 8 1013.1 1012.8 0.0
22/04:00pm 17.2 16.1 10.8 66 3.5 SSE 7 19 4 10 1013.3 1013.0 0.0
22/03:30pm 17.8 16.3 10.7 63 3.9 SSE 9 20 5 11 1013.3 1013.0 0.0
22/03:00pm 17.8 16.3 10.4 62 4.0 SE 9 17 5 9 1013.3 1013.0 0.0
22/02:30pm 17.4 16.3 10.8 65 3.6 SE 7 19 4 10 1013.3 1013.0 0.0
22/02:00pm 17.4 15.4 10.3 63 3.8 ESE 11 19 6 10 1013.4 1013.1 0.0
22/01:30pm 17.6 16.3 11.4 67 3.4 SE 9 15 5 8 1013.5 1013.2 0.0
22/01:00pm 18.3 16.8 11.8 66 3.6 SSE 11 17 6 9 1013.7 1013.4 0.0
22/12:30pm 17.0 14.6 10.1 64 3.7 SSE 13 17 7 9 1013.7 1013.4 0.0
22/12:00pm 17.8 15.9 10.4 62 4.0 S 11 17 6 9 1013.7 1013.4 0.0
22/11:30am 18.4 17.1 10.0 58 4.5 S 7 11 4 6 1013.8 1013.5 0.0
22/11:00am 18.2 17.2 9.0 55 4.9 E 4 11 2 6 1013.7 1013.4 0.0
22/10:30am 18.5 17.6 9.3 55 4.9 NE 4 9 2 5 1013.7 1013.4 0.0
22/10:00am 17.7 16.4 9.3 58 4.4 NNE 6 9 3 5 1013.8 1013.5 0.0
22/09:30am 17.6 15.9 8.2 54 4.9 N 7 11 4 6 1014.0 1013.8 0.0
22/09:00am 16.9 14.6 7.5 54 4.8 N 9 15 5 8 1014.1 1013.9 0.0
22/08:30am 15.7 13.9 7.2 57 4.3 NW 6 13 3 7 1014.3 1014.1 0.0
22/08:00am 15.1 12.5 7.9 62 3.6 NNW 11 17 6 9 1014.2 1014.0 0.0
22/07:30am 14.1 11.5 7.6 65 3.2 N 11 20 6 11 1013.9 1013.7 0.0
22/07:00am 13.3 10.5 7.1 66 3.0 NNW 11 17 6 9 1013.5 1013.2 0.0
22/06:30am 13.0 10.2 6.8 66 3.0 NW 11 15 6 8 1013.7 1013.4 0.0
22/06:00am 13.1 10.4 7.3 68 2.9 NW 11 20 6 11 1013.5 1013.2 0.0
22/05:30am 13.2 10.5 7.2 67 3.0 WNW 11 17 6 9 1013.3 1013.0 0.0
22/05:00am 13.0 9.9 7.2 68 2.9 WNW 13 20 7 11 1013.2 1012.9 0.0
22/04:30am 12.5 9.5 7.6 72 2.4 WNW 13 22 7 12 1012.7 1012.4 0.0
22/04:00am 12.7 9.7 7.8 72 2.4 WNW 13 22 7 12 1012.9 1012.6 0.0
22/03:30am 12.9 9.2 8.0 72 2.4 WNW 17 26 9 14 1012.9 1012.6 0.0
22/03:00am 12.8 9.9 8.3 74 2.3 WNW 13 22 7 12 1013.0 1012.7 0.0
22/02:30am 12.9 11.1 7.8 71 2.5 WNW 7 24 4 13 1013.1 1012.8 0.0
22/02:00am 12.9 11.3 7.8 71 2.5 WSW 6 22 3 12 1013.2 1012.9 0.0
22/01:30am 13.5 11.7 8.1 70 2.7 WSW 7 26 4 14 1013.5 1013.2 0.0
22/01:00am 13.6 12.2 8.9 73 2.4 SSW 6 26 3 14 1013.6 1013.3 0.0
22/12:30am 13.2 11.1 8.3 72 2.5 WNW 9 22 5 12 1013.7 1013.4 0.0
22/12:00am 13.4 11.5 8.9 74 2.3 NW 9 26 5 14 1013.6 1013.3 0.0
 
Date/Time
EDT
Temp
°C
App
Temp
°C
Dew
Point
°C
Rel
Hum
%
Delta-T
°C
Wind Press
QNH
hPa
Press
MSL
hPa
Rain since
9am
mm
Dir  Spd
km/h
Gust
km/h
Spd
kts
Gust
kts
21/11:30pm 13.2 11.8 8.9 75 2.2 NW 6 24 3 13 1013.8 1013.5 0.0
21/11:00pm 12.9 9.7 10.1 83 1.5 W 17 32 9 17 1013.7 1013.4 0.0
21/10:30pm 12.7 10.7 10.2 85 1.3 WSW 11 32 6 17 1013.7 1013.4 0.0
21/10:00pm 13.3 8.5 10.3 82 1.6 SW 26 48 14 26 1013.6 1013.3 0.0
21/09:30pm 13.1 7.2 10.5 84 1.4 SSW 32 54 17 29 1013.3 1013.0 0.0
21/09:00pm 13.2 8.0 10.2 82 1.6 SW 28 48 15 26 1013.2 1012.9 0.0
21/08:57pm 13.2 7.9 10.0 81 1.7 SSW 28 48 15 26 1013.2 1012.9 0.0
21/08:30pm 13.3 7.5 9.4 77 2.0 SW 30 44 16 24 1012.9 1012.6 0.0
21/08:03pm 13.5 7.3 9.4 76 2.1 SW 32 52 17 28 1012.5 1012.2 0.0
21/08:00pm 13.5 7.4 9.6 77 2.0 SW 32 48 17 26 1012.5 1012.2 0.0
21/07:49pm 13.5 7.3 9.4 76 2.1 SW 32 54 17 29 1012.4 1012.1 0.0
21/07:30pm 13.6 7.3 9.6 77 2.1 SW 33 46 18 25 1012.1 1011.8 0.0
21/07:04pm 14.0 8.6 9.6 75 2.3 SSW 28 46 15 25 1011.7 1011.4 0.0
21/07:00pm 14.0 9.0 9.6 75 2.3 SSW 26 48 14 26 1011.7 1011.4 0.0
21/06:30pm 14.0 8.5 9.2 73 2.5 SSW 28 50 15 27 1011.4 1011.1 0.0
21/06:00pm 13.8 8.5 9.8 77 2.1 SSW 28 56 15 30 1011.1 1010.8 0.0
21/05:30pm 13.5 7.8 9.9 79 1.9 SW 30 57 16 31 1011.0 1010.7 0.0
21/05:09pm 13.7 8.4 9.7 77 2.1 SW 28 50 15 27 1011.1 1010.8 0.0
21/05:00pm 13.7 9.5 9.6 76 2.1 SW 22 50 12 27 1011.1 1010.8 0.0
21/04:33pm 13.8 8.5 9.8 77 2.1 SW 28 50 15 27 1011.1 1010.8 0.0
21/04:30pm 13.7 8.7 9.7 77 2.1 SW 26 50 14 27 1011.1 1010.8 0.0

Latest Capital City Observations: Canberra | Sydney | Melbourne | Brisbane | Adelaide | Perth | Hobart | Darwin

Other Formats:

Comma delimited format used in spreadsheet applications
http://www.bom.gov.au/fwo/IDT60901/IDT60901.95986.axf

JavaScript Object Notation format (JSON) in row-major order
http://www.bom.gov.au/fwo/IDT60901/IDT60901.95986.json